.
WxDataArchive / Data Records for 2006-11-04
2006-11-03 November 2006 2006-11-05

Data Records for Saturday, 04 November 2006

Time	Temp	Chill	HIndex	Humid	Dewpt	 Wind 	HiWind	WindDir	Rain 	Barom 
-----	----	-----	------	-----	-----	------	------	-------	-----	----- 
00:00	22.2	22.2	22.2	78	16.4	0	0	---	0.00	30.427 
00:05	22.2	22.2	22.2	78	16.4	0	0	---	0.00	30.427 
00:10	22.1	22.1	22.1	78	16.3	0	0	---	0.00	30.427 
00:15	22.1	22.1	22.1	78	16.3	0	0	---	0.00	30.427 
00:20	22.1	22.1	22.1	79	16.6	0	0	---	0.00	30.427 
00:25	22.1	22.1	22.1	79	16.6	0	0	---	0.00	30.427 
00:30	22.1	22.1	22.1	79	16.6	0	0	---	0.00	30.428 
00:35	21.9	21.9	21.9	79	16.4	0	0	---	0.00	30.428 
00:40	21.9	21.9	21.9	79	16.4	0	0	---	0.00	30.428 
00:45	21.9	21.9	21.9	79	16.4	0	0	---	0.00	30.428 
00:50	21.8	21.8	21.8	79	16.3	0	0	---	0.00	30.428 
00:55	21.8	21.8	21.8	79	16.3	0	0	---	0.00	30.428 
01:00	21.6	21.6	21.6	80	16.4	0	0	---	0.00	30.429 
01:05	21.4	21.4	21.4	80	16.2	0	0	---	0.00	30.429 
01:10	21.4	21.4	21.4	80	16.2	0	0	---	0.00	30.429 
01:15	21.4	21.4	21.4	80	16.2	0	0	---	0.00	30.425 
01:20	21.3	21.3	21.3	80	16.1	0	0	---	0.00	30.425 
01:25	21.3	21.3	21.3	80	16.1	0	0	---	0.00	30.425 
01:30	21.1	21.1	21.1	80	15.9	0	0	---	0.00	30.428 
01:35	21.1	21.1	21.1	81	16.2	0	0	---	0.00	30.428 
01:40	21.1	21.1	21.1	81	16.2	0	0	---	0.00	30.428 
01:45	21.1	21.1	21.1	81	16.2	0	0	---	0.00	30.425 
01:50	21.1	21.1	21.1	81	16.2	0	0	---	0.00	30.425 
01:55	21.0	21.0	21.0	82	16.4	0	0	---	0.00	30.425 
02:00	21.0	21.0	21.0	82	16.4	0	0	---	0.00	30.427 
02:05	21.0	21.0	21.0	82	16.4	0	0	---	0.00	30.427 
02:10	21.0	21.0	21.0	82	16.4	0	0	---	0.00	30.427 
02:15	21.0	21.0	21.0	82	16.4	0	0	---	0.00	30.426 
02:20	21.0	21.0	21.0	82	16.4	0	0	---	0.00	30.426 
02:25	20.8	20.8	20.8	83	16.5	0	0	---	0.00	30.426 
02:30	20.8	20.8	20.8	83	16.5	0	0	---	0.00	30.427 
02:35	20.8	20.8	20.8	83	16.5	0	0	---	0.00	30.427 
02:40	20.8	20.8	20.8	84	16.7	0	0	---	0.00	30.427 
02:45	20.6	20.6	20.6	84	16.5	0	0	---	0.00	30.425 
02:50	20.6	20.6	20.6	84	16.5	0	0	---	0.00	30.425 
02:55	20.6	20.6	20.6	84	16.5	0	0	---	0.00	30.425 
03:00	20.6	20.6	20.6	84	16.5	0	0	---	0.00	30.426 
03:05	20.6	20.6	20.6	84	16.5	0	0	---	0.00	30.426 
03:10	20.6	20.6	20.6	84	16.5	0	0	---	0.00	30.426 
03:15	20.6	20.6	20.6	84	16.5	0	0	---	0.00	30.425 
03:20	20.6	20.6	20.6	85	16.8	0	0	---	0.00	30.425 
03:25	20.6	20.6	20.6	84	16.5	0	0	---	0.00	30.425 
03:30	20.6	20.6	20.6	84	16.5	0	0	---	0.00	30.424 
03:35	20.6	20.6	20.6	84	16.5	0	0	---	0.00	30.424 
03:40	20.6	20.6	20.6	84	16.5	0	0	---	0.00	30.424 
03:45	20.5	20.5	20.5	84	16.4	0	0	---	0.00	30.425 
03:50	20.5	20.5	20.5	84	16.4	0	0	---	0.00	30.425 
03:55	20.5	20.5	20.5	84	16.4	0	0	---	0.00	30.425 
04:00	20.3	20.3	20.3	84	16.3	0	0	---	0.00	30.424 
04:05	20.3	20.3	20.3	84	16.3	0	0	---	0.00	30.424 
04:10	20.3	20.3	20.3	85	16.5	0	0	---	0.00	30.424 
04:15	20.6	20.6	20.6	85	16.8	0	0	---	0.00	30.427 
04:20	20.8	20.8	20.8	86	17.3	0	0	---	0.00	30.427 
04:25	21.1	21.1	21.1	86	17.6	0	0	---	0.00	30.427 
04:30	21.4	21.4	21.4	87	18.1	0	0	---	0.00	30.429 
04:35	21.9	21.9	21.9	87	18.6	0	0	---	0.00	30.429 
04:40	22.2	22.2	22.2	87	18.9	0	0	---	0.00	30.429 
04:45	22.4	22.4	22.4	86	18.9	0	0	---	0.00	30.433 
04:50	22.5	22.5	22.5	86	19.0	0	0	---	0.00	30.433 
04:55	22.7	22.7	22.7	86	19.2	0	0	---	0.00	30.433 
05:00	22.9	22.9	22.9	85	19.1	0	0	---	0.00	30.436 
05:05	23.0	23.0	23.0	85	19.2	0	0	---	0.00	30.436 
05:10	23.5	23.5	23.5	83	19.1	0	0	---	0.00	30.436 
05:15	23.9	23.9	23.9	81	18.9	0	0	---	0.00	30.444 
05:20	24.2	24.2	24.2	81	19.2	0	0	---	0.00	30.444 
05:25	24.5	24.5	24.5	81	19.5	0	0	---	0.00	30.444 
05:30	24.7	24.7	24.7	80	19.4	0	0	---	0.00	30.446 
05:35	25.0	25.0	25.0	79	19.4	0	0	---	0.00	30.446 
05:40	25.3	25.3	25.3	77	19.1	0	0	---	0.00	30.446 
05:45	25.4	25.4	25.4	79	19.8	0	0	---	0.00	30.446 
05:50	25.6	25.6	25.6	79	20.0	0	0	---	0.00	30.446 
05:55	25.8	25.8	25.8	77	19.6	0	0	---	0.00	30.446 
06:00	26.0	26.0	26.0	76	19.5	0	0	---	0.00	30.446 
06:05	26.1	26.1	26.1	76	19.6	0	0	---	0.00	30.446 
06:10	26.3	26.3	26.3	76	19.8	0	0	---	0.00	30.446 
06:15	26.4	26.4	26.4	76	19.9	0	0	---	0.00	30.448 
06:20	26.4	26.4	26.4	76	19.9	0	0	---	0.00	30.448 
06:25	26.4	26.4	26.4	76	19.9	0	0	---	0.00	30.448 
06:30	26.4	26.4	26.4	75	19.6	0	0	---	0.00	30.447 
06:35	26.4	26.4	26.4	75	19.6	0	1	315	0.00	30.447 
06:40	26.4	26.4	26.4	75	19.6	0	1	315	0.00	30.447 
06:45	26.6	26.6	26.6	75	19.8	0	1	315	0.00	30.446 
06:50	26.6	26.6	26.6	74	19.5	0	0	---	0.00	30.446 
06:55	26.7	26.7	26.7	74	19.5	0	1	315	0.00	30.446 
07:00	26.9	26.9	26.9	74	19.7	0	1	315	0.00	30.447 
07:05	27.2	27.2	27.2	73	19.7	0	1	315	0.00	30.447 
07:10	27.3	27.3	27.3	73	19.8	0	1	315	0.00	30.447 
07:15	27.5	27.5	27.5	73	20.0	0	1	315	0.00	30.448 
07:20	27.8	27.8	27.8	72	20.0	0	1	315	0.00	30.448 
07:25	27.9	27.9	27.9	71	19.7	0	1	315	0.00	30.448 
07:30	28.1	28.1	28.1	72	20.3	0	1	315	0.00	30.448 
07:35	28.2	28.2	28.2	71	20.0	0	1	315	0.00	30.448 
07:40	28.4	28.4	28.4	71	20.2	0	1	315	0.00	30.448 
07:45	28.4	28.4	28.4	70	19.9	0	1	315	0.00	30.451 
07:50	28.7	28.7	28.7	70	20.2	0	1	315	0.00	30.451 
07:55	28.8	28.8	28.8	70	20.3	0	1	315	0.00	30.451 
08:00	29.0	29.0	29.0	70	20.5	0	1	315	0.00	30.452 
08:05	29.1	29.1	29.1	70	20.6	0	0	---	0.00	30.452 
08:10	29.3	29.3	29.3	70	20.8	0	1	315	0.00	30.452 
08:15	29.5	29.5	29.5	70	20.9	0	1	315	0.00	30.451 
08:20	29.8	29.8	29.8	70	21.2	0	1	315	0.00	30.451 
08:25	30.1	30.1	30.1	69	21.2	0	1	315	0.00	30.451 
08:30	30.4	30.4	30.4	69	21.5	0	1	315	0.00	30.453 
08:35	30.7	30.7	30.7	69	21.8	0	1	315	0.00	30.453 
08:40	31.2	31.2	31.2	69	22.2	0	1	315	0.00	30.453 
08:45	31.6	31.6	31.6	67	21.9	0	1	315	0.00	30.450 
08:50	32.1	32.1	32.1	67	22.4	0	1	315	0.00	30.450 
08:55	32.5	32.5	32.5	65	22.1	0	1	315	0.00	30.450 
09:00	32.8	32.8	32.8	65	22.3	0	2	315	0.00	30.446 
09:05	33.2	33.2	33.2	63	22.0	0	1	112	0.00	30.446 
09:10	33.7	33.7	33.7	63	22.5	0	2	112	0.00	30.446 
09:15	34.0	34.0	34.0	64	23.1	0	1	112	0.00	30.446 
09:20	34.4	34.4	34.4	64	23.5	0	1	112	0.00	30.446 
09:25	34.9	34.9	34.9	62	23.2	0	2	112	0.00	30.446 
09:30	35.2	35.2	35.2	62	23.5	0	2	158	0.00	30.445 
09:35	35.5	35.5	35.5	61	23.4	1	3	158	0.00	30.445 
09:40	35.8	35.8	35.8	60	23.3	1	3	90	0.00	30.445 
09:45	36.3	36.3	36.3	62	24.5	0	2	202	0.00	30.440 
09:50	36.9	36.9	36.9	59	23.9	1	3	90	0.00	30.440 
09:55	37.6	37.6	37.6	59	24.6	1	3	292	0.00	30.440 
10:00	38.2	38.2	38.2	58	24.7	1	3	22	0.00	30.435 
10:05	38.8	38.8	38.8	55	24.0	1	4	90	0.00	30.435 
10:10	39.1	39.1	39.1	55	24.3	1	5	270	0.00	30.435 
10:15	39.6	39.6	39.6	55	24.8	1	3	90	0.00	30.434 
10:20	39.9	39.9	39.9	54	24.6	1	5	248	0.00	30.434 
10:25	40.2	40.2	40.2	54	24.9	1	3	248	0.00	30.434 
10:30	40.6	40.6	40.6	55	25.7	0	2	338	0.00	30.427 
10:35	41.3	41.3	41.3	53	25.5	1	3	68	0.00	30.427 
10:40	41.8	41.8	41.8	53	25.9	1	3	90	0.00	30.427 
10:45	42.2	42.2	42.2	51	25.4	2	4	90	0.00	30.425 
10:50	42.6	42.6	42.6	52	26.2	1	4	112	0.00	30.425 
10:55	42.9	42.9	42.9	51	26.0	2	5	270	0.00	30.425 
11:00	43.1	43.1	43.1	52	26.7	1	4	248	0.00	30.422 
11:05	43.3	43.3	43.3	50	25.9	1	4	90	0.00	30.422 
11:10	43.6	43.6	43.6	50	26.2	1	4	90	0.00	30.422 
11:15	44.2	44.2	44.2	50	26.8	2	4	248	0.00	30.421 
11:20	44.6	44.6	44.6	49	26.6	1	3	270	0.00	30.421 
11:25	45.1	45.1	45.1	47	26.1	2	5	270	0.00	30.421 
11:30	45.4	45.4	45.4	48	26.9	1	4	112	0.00	30.421 
11:35	45.7	45.7	45.7	48	27.1	1	6	90	0.00	30.421 
11:40	45.5	45.5	45.5	44	24.9	3	7	270	0.00	30.421 
11:45	45.2	45.2	45.2	46	25.7	3	7	248	0.00	30.413 
11:50	45.5	45.5	45.5	47	26.5	1	4	270	0.00	30.413 
11:55	45.7	45.7	45.7	46	26.1	2	8	248	0.00	30.413 
12:00	45.7	45.7	45.7	46	26.1	2	9	248	0.00	30.406 
12:05	46.0	46.0	46.0	48	27.4	1	5	248	0.00	30.406 
12:10	46.1	46.1	46.1	47	27.0	2	4	248	0.00	30.406 
12:15	46.1	46.1	46.1	46	26.5	2	5	248	0.00	30.405 
12:20	46.4	46.4	46.4	44	25.7	2	6	248	0.00	30.405 
12:25	46.8	46.8	46.8	45	26.6	2	4	248	0.00	30.405 
12:30	47.0	47.0	47.0	44	26.2	3	6	248	0.00	30.401 
12:35	47.0	47.0	47.0	45	26.8	2	6	270	0.00	30.401 
12:40	47.3	47.3	47.3	46	27.6	2	5	202	0.00	30.401 
12:45	47.3	47.3	47.3	44	26.5	1	6	248	0.00	30.393 
12:50	47.6	47.6	47.6	45	27.3	1	5	270	0.00	30.393 
12:55	47.7	47.7	47.7	45	27.4	1	4	22	0.00	30.393 
13:00	47.7	47.7	47.7	43	26.3	2	7	248	0.00	30.388 
13:05	47.7	47.7	47.7	42	25.7	3	9	248	0.00	30.388 
13:10	47.6	47.6	47.6	42	25.7	3	6	248	0.00	30.388 
13:15	47.9	47.9	47.9	44	27.0	1	3	112	0.00	30.382 
13:20	47.9	47.9	47.9	44	27.0	1	4	270	0.00	30.382 
13:25	48.0	48.0	48.0	44	27.1	1	4	90	0.00	30.382 
13:30	48.0	48.0	48.0	43	26.6	2	5	90	0.00	30.374 
13:35	48.2	48.2	48.2	44	27.3	1	6	225	0.00	30.374 
13:40	48.5	48.5	48.5	44	27.6	2	5	248	0.00	30.374 
13:45	48.5	48.5	48.5	42	26.5	2	10	270	0.00	30.371 
13:50	48.6	48.6	48.6	44	27.7	2	5	292	0.00	30.371 
13:55	48.8	48.8	48.8	41	26.2	3	12	90	0.00	30.371 
14:00	48.9	48.9	48.9	41	26.2	3	9	270	0.00	30.369 
14:05	49.1	49.1	49.1	41	26.4	2	5	248	0.00	30.369 
14:10	49.1	49.1	49.1	41	26.4	1	6	248	0.00	30.369 
14:15	48.9	48.9	48.9	41	26.2	2	5	112	0.00	30.366 
14:20	48.8	48.8	48.8	40	25.6	3	11	270	0.00	30.366 
14:25	48.8	48.8	48.8	45	28.4	3	7	270	0.00	30.366 
14:30	48.8	48.8	48.8	42	26.7	1	5	270	0.00	30.366 
14:35	48.8	48.8	48.8	42	26.7	3	6	248	0.00	30.366 
14:40	48.6	48.6	48.6	42	26.6	1	5	112	0.00	30.366 
14:45	48.6	48.6	48.6	42	26.6	1	3	248	0.00	30.367 
14:50	48.6	48.6	48.6	42	26.6	2	6	270	0.00	30.367 
14:55	48.5	48.5	48.5	41	25.9	2	9	270	0.00	30.367 
15:00	48.3	48.3	48.3	42	26.3	1	5	270	0.00	30.371 
15:05	48.3	48.3	48.3	42	26.3	2	6	248	0.00	30.371 
15:10	48.2	48.2	48.2	41	25.6	2	6	270	0.00	30.371 
15:15	48.2	48.2	48.2	44	27.3	3	9	248	0.00	30.379 
15:20	47.3	47.3	47.3	54	31.5	3	12	248	0.00	30.379 
15:25	46.2	46.2	46.2	55	30.9	1	4	112	0.00	30.379 
15:30	46.0	46.0	46.0	58	32.1	0	2	248	0.00	30.358 
15:35	45.7	45.7	45.7	57	31.3	0	1	248	0.00	30.358 
15:40	45.7	45.7	45.7	55	30.5	0	1	248	0.00	30.358 
15:45	45.8	45.8	45.8	56	31.0	0	0	---	0.00	30.362 
15:50	45.8	45.8	45.8	55	30.6	0	1	248	0.00	30.362 
15:55	46.0	46.0	46.0	54	30.3	0	1	248	0.00	30.362 
16:00	46.1	46.1	46.1	55	30.8	0	1	248	0.00	30.363 
16:05	46.2	46.2	46.2	55	30.9	0	1	248	0.00	30.363 
16:10	46.4	46.4	46.4	54	30.7	0	1	248	0.00	30.363 
16:15	46.5	46.5	46.5	51	29.4	1	3	248	0.00	30.360 
16:20	46.7	46.7	46.7	49	28.6	0	2	112	0.00	30.360 
16:25	46.8	46.8	46.8	47	27.6	0	2	112	0.00	30.360 
16:30	46.8	46.8	46.8	46	27.1	1	2	112	0.00	30.363 
16:35	47.0	47.0	47.0	46	27.3	1	3	112	0.00	30.363 
16:40	46.8	46.8	46.8	47	27.6	0	2	112	0.00	30.363 
16:45	46.8	46.8	46.8	46	27.1	1	2	135	0.00	30.363 
16:50	46.8	46.8	46.8	44	26.0	1	3	112	0.00	30.363 
16:55	46.8	46.8	46.8	46	27.1	1	3	112	0.00	30.363 
17:00	46.7	46.7	46.7	46	27.0	1	3	112	0.00	30.352 
17:05	46.7	46.7	46.7	46	27.0	1	3	112	0.00	30.352 
17:10	46.5	46.5	46.5	46	26.8	0	2	135	0.00	30.352 
17:15	46.4	46.4	46.4	47	27.3	0	1	68	0.00	30.354 
17:20	46.4	46.4	46.4	47	27.3	0	2	68	0.00	30.354 
17:25	46.2	46.2	46.2	48	27.6	0	2	112	0.00	30.354 
17:30	46.1	46.1	46.1	48	27.5	0	2	135	0.00	30.358 
17:35	46.0	46.0	46.0	48	27.4	0	3	90	0.00	30.358 
17:40	45.8	45.8	45.8	49	27.7	1	2	90	0.00	30.358 
17:45	45.5	45.5	45.5	49	27.5	0	2	90	0.00	30.353 
17:50	45.4	45.4	45.4	49	27.4	0	1	90	0.00	30.353 
17:55	45.2	45.2	45.2	49	27.2	0	1	90	0.00	30.353 
18:00	45.2	45.2	45.2	50	27.7	1	2	90	0.00	30.356 
18:05	45.1	45.1	45.1	50	27.6	0	2	90	0.00	30.356 
18:10	44.9	44.9	44.9	50	27.4	0	1	90	0.00	30.356 
18:15	44.6	44.6	44.6	50	27.1	0	1	90	0.00	30.357 
18:20	44.5	44.5	44.5	50	27.0	0	1	90	0.00	30.357 
18:25	44.3	44.3	44.3	51	27.3	0	1	90	0.00	30.357 
18:30	44.1	44.1	44.1	52	27.6	0	1	90	0.00	30.363 
18:35	43.9	43.9	43.9	52	27.4	0	2	112	0.00	30.363 
18:40	43.8	43.8	43.8	53	27.8	1	3	112	0.00	30.363 
18:45	43.6	43.6	43.6	53	27.6	0	2	112	0.00	30.356 
18:50	43.6	43.6	43.6	54	28.1	1	2	112	0.00	30.356 
18:55	43.5	43.5	43.5	54	28.0	0	2	112	0.00	30.356 
19:00	43.3	43.3	43.3	54	27.8	0	2	112	0.00	30.353 
19:05	43.3	43.3	43.3	54	27.8	0	1	90	0.00	30.353 
19:10	43.2	43.2	43.2	55	28.1	1	3	90	0.00	30.353 
19:15	43.2	43.2	43.2	55	28.1	0	2	112	0.00	30.341 
19:20	43.1	43.1	43.1	55	28.0	1	2	112	0.00	30.341 
19:25	43.1	43.1	43.1	55	28.0	1	3	68	0.00	30.341 
19:30	43.1	43.1	43.1	55	28.0	0	2	90	0.00	30.336 
19:35	43.1	43.1	43.1	55	28.0	0	3	112	0.00	30.336 
19:40	43.1	43.1	43.1	54	27.6	0	1	112	0.00	30.336 
19:45	43.1	43.1	43.1	55	28.0	0	2	158	0.00	30.352 
19:50	43.1	43.1	43.1	54	27.6	1	4	158	0.00	30.352 
19:55	43.2	43.2	43.2	53	27.2	1	2	90	0.00	30.352 
20:00	43.3	43.3	43.3	52	26.9	1	3	90	0.00	30.351 
20:05	43.5	43.5	43.5	51	26.6	1	3	135	0.00	30.351 
20:10	43.5	43.5	43.5	50	26.1	1	3	112	0.00	30.351 
20:15	43.6	43.6	43.6	50	26.2	1	3	112	0.00	30.343 
20:20	43.6	43.6	43.6	51	26.7	0	2	112	0.00	30.343 
20:25	43.5	43.5	43.5	51	26.6	1	2	90	0.00	30.343 
20:30	43.3	43.3	43.3	51	26.4	0	2	112	0.00	30.336 
20:35	43.3	43.3	43.3	50	25.9	1	2	112	0.00	30.336 
20:40	43.3	43.3	43.3	51	26.4	1	2	135	0.00	30.336 
20:45	43.2	43.2	43.2	51	26.3	0	2	112	0.00	30.334 
20:50	43.1	43.1	43.1	52	26.7	0	2	112	0.00	30.334 
20:55	43.1	43.1	43.1	52	26.7	1	3	112	0.00	30.334 
21:00	43.1	43.1	43.1	52	26.7	0	2	112	0.00	30.336 
21:05	42.9	42.9	42.9	52	26.5	0	2	112	0.00	30.336 
21:10	42.9	42.9	42.9	52	26.5	1	3	112	0.00	30.336 
21:15	42.8	42.8	42.8	52	26.4	0	3	135	0.00	30.329 
21:20	42.8	42.8	42.8	52	26.4	1	2	68	0.00	30.329 
21:25	42.8	42.8	42.8	52	26.4	1	3	112	0.00	30.329 
21:30	42.8	42.8	42.8	53	26.9	1	2	112	0.00	30.324 
21:35	42.6	42.6	42.6	53	26.7	0	1	112	0.00	30.324 
21:40	42.5	42.5	42.5	54	27.0	0	3	112	0.00	30.324 
21:45	42.5	42.5	42.5	53	26.6	0	1	112	0.00	30.335 
21:50	42.5	42.5	42.5	53	26.6	0	2	112	0.00	30.335 
21:55	42.5	42.5	42.5	53	26.6	0	1	112	0.00	30.335 
22:00	42.5	42.5	42.5	53	26.6	0	1	112	0.00	30.343 
22:05	42.5	42.5	42.5	53	26.6	0	2	112	0.00	30.343 
22:10	42.5	42.5	42.5	54	27.0	0	1	112	0.00	30.343 
22:15	42.5	42.5	42.5	53	26.6	0	0	---	0.00	30.339 
22:20	42.3	42.3	42.3	54	26.9	0	1	112	0.00	30.339 
22:25	42.3	42.3	42.3	54	26.9	0	1	112	0.00	30.339 
22:30	42.3	42.3	42.3	53	26.4	0	2	112	0.00	30.342 
22:35	42.3	42.3	42.3	54	26.9	0	1	112	0.00	30.342 
22:40	42.3	42.3	42.3	55	27.3	0	2	112	0.00	30.342 
22:45	42.3	42.3	42.3	55	27.3	0	2	112	0.00	30.340 
22:50	42.2	42.2	42.2	55	27.2	0	1	112	0.00	30.340 
22:55	42.2	42.2	42.2	55	27.2	0	1	112	0.00	30.340 
23:00	42.1	42.1	42.1	56	27.5	0	0	---	0.00	30.342 
23:05	41.9	41.9	41.9	57	27.8	0	1	112	0.00	30.342 
23:10	41.9	41.9	41.9	57	27.8	0	1	112	0.00	30.342 
23:15	41.8	41.8	41.8	57	27.7	0	1	112	0.00	30.334 
23:20	41.8	41.8	41.8	56	27.3	0	1	112	0.00	30.334 
23:25	41.8	41.8	41.8	56	27.3	0	1	112	0.00	30.334 
23:30	41.8	41.8	41.8	57	27.7	0	1	112	0.00	30.330 
23:35	41.8	41.8	41.8	57	27.7	0	1	112	0.00	30.330 
23:40	41.8	41.8	41.8	57	27.7	0	1	112	0.00	30.330 
23:45	41.8	41.8	41.8	57	27.7	0	1	112	0.00	30.331 
23:50	41.8	41.8	41.8	57	27.7	0	1	112	0.00	30.331 
23:55	41.8	41.8	41.8	58	28.1	0	1	112	0.00	30.331 

CoCoRaHS
IN-AL-39
A2 Web Hosting
Creative Commons License
GoDaddy
Look for:

loaded 2017-12-13 02:55:25 • last modified 2010-11-18 10:43:29
Privacy PolicyDisclaimer
• wx.awcolley.com is powered by PmWiki v.2002016 •
• all content (unless otherwise noted) © 2017 A W Colley